createdAt,value
2017-09-12T00:01:49.108Z,56.05
2017-09-12T00:04:16.527Z,56.07
2017-09-12T00:06:44.084Z,56.02
2017-09-12T00:09:11.524Z,56.02
2017-09-12T00:11:38.974Z,56.03
2017-09-12T00:14:06.451Z,56.01
2017-09-12T00:16:33.888Z,55.97
2017-09-12T00:19:01.338Z,56.00
2017-09-12T00:21:28.775Z,56.00
2017-09-12T00:23:56.237Z,56.01
2017-09-12T00:26:23.665Z,56.02
2017-09-12T00:28:51.138Z,56.00
2017-09-12T00:31:18.563Z,56.00
2017-09-12T00:33:45.987Z,55.99
2017-09-12T00:36:13.461Z,56.00
2017-09-12T00:38:41.017Z,55.98
2017-09-12T00:41:08.461Z,55.97
2017-09-12T00:43:35.893Z,55.96
2017-09-12T00:46:03.297Z,55.95
2017-09-12T00:48:30.715Z,56.00
2017-09-12T00:50:58.164Z,55.98
2017-09-12T00:53:26.726Z,55.93
2017-09-12T00:55:54.140Z,55.96
2017-09-12T00:58:21.594Z,55.92
2017-09-12T01:00:49.178Z,55.94
2017-09-12T01:03:16.720Z,55.93
2017-09-12T01:05:44.172Z,55.93
2017-09-12T01:08:11.678Z,55.94
2017-09-12T01:10:39.116Z,55.93
2017-09-12T01:13:06.611Z,55.90
2017-09-12T01:15:34.044Z,55.91
2017-09-12T01:18:01.472Z,55.88
2017-09-12T01:20:28.913Z,55.92
2017-09-12T01:22:56.367Z,55.89
2017-09-12T01:25:23.826Z,55.90
2017-09-12T01:27:51.269Z,55.88
2017-09-12T01:30:18.689Z,55.93
2017-09-12T01:32:46.107Z,55.91
2017-09-12T01:35:13.533Z,55.91
2017-09-12T01:37:40.957Z,55.87
2017-09-12T01:40:08.445Z,55.90
2017-09-12T01:42:35.895Z,55.90
2017-09-12T01:45:03.323Z,55.91
2017-09-12T01:47:30.761Z,55.92
2017-09-12T01:49:58.213Z,55.88
2017-09-12T01:52:25.675Z,55.86
2017-09-12T01:54:53.064Z,55.89
2017-09-12T01:57:20.527Z,55.88
2017-09-12T01:59:47.957Z,55.92
2017-09-12T02:02:15.370Z,55.90
2017-09-12T02:04:42.808Z,55.90
2017-09-12T02:07:10.308Z,55.90
2017-09-12T02:09:37.739Z,55.94
2017-09-12T02:12:05.198Z,55.90
2017-09-12T02:14:32.625Z,55.89
2017-09-12T02:17:00.045Z,55.91
2017-09-12T02:19:27.497Z,55.92
2017-09-12T02:21:54.951Z,55.88
2017-09-12T02:24:22.761Z,55.91
2017-09-12T02:26:50.347Z,55.90
2017-09-12T02:29:17.785Z,55.93
2017-09-12T02:31:45.241Z,55.89
2017-09-12T02:34:12.715Z,55.90
2017-09-12T02:36:40.147Z,55.94
2017-09-12T02:39:07.621Z,55.87
2017-09-12T02:41:35.188Z,55.89
2017-09-12T02:44:02.683Z,55.91
2017-09-12T02:46:30.100Z,55.90
2017-09-12T02:48:57.528Z,55.90
2017-09-12T02:51:25.046Z,55.90
2017-09-12T02:53:52.492Z,55.91
2017-09-12T02:56:19.988Z,55.90
2017-09-12T02:58:47.416Z,55.92
2017-09-12T03:01:14.854Z,55.90
2017-09-12T03:03:42.302Z,55.96
2017-09-12T03:06:09.736Z,55.96
2017-09-12T03:08:37.166Z,55.91
2017-09-12T03:11:04.601Z,55.90
2017-09-12T03:13:32.017Z,55.89
2017-09-12T03:15:59.448Z,55.91
2017-09-12T03:18:26.968Z,55.92
2017-09-12T03:20:54.463Z,55.89
2017-09-12T03:23:21.890Z,55.91
2017-09-12T03:25:49.341Z,55.90
2017-09-12T03:28:16.751Z,55.93
2017-09-12T03:30:44.193Z,55.88
2017-09-12T03:33:11.619Z,55.90
2017-09-12T03:35:39.042Z,55.90
2017-09-12T03:38:06.467Z,55.89
2017-09-12T03:40:33.948Z,55.91
2017-09-12T03:43:01.372Z,55.90
2017-09-12T03:45:28.816Z,55.88
2017-09-12T03:47:56.394Z,55.91
2017-09-12T03:50:23.878Z,55.92
2017-09-12T03:52:51.294Z,55.92
2017-09-12T03:55:18.745Z,55.88
2017-09-12T03:57:46.166Z,55.89
2017-09-12T04:00:13.606Z,55.90
2017-09-12T04:02:41.045Z,55.85
2017-09-12T04:05:08.475Z,55.85
2017-09-12T04:07:35.906Z,55.86
2017-09-12T04:10:03.394Z,55.86
2017-09-12T04:12:30.822Z,55.87
2017-09-12T04:14:58.273Z,55.83
2017-09-12T04:17:25.721Z,55.82
2017-09-12T04:19:53.153Z,55.79
2017-09-12T04:22:20.563Z,55.82
2017-09-12T04:24:48.023Z,55.82
2017-09-12T04:27:15.476Z,55.91
2017-09-12T04:29:42.937Z,55.83
2017-09-12T04:32:10.461Z,55.90
2017-09-12T04:34:37.872Z,55.89
2017-09-12T04:37:05.296Z,55.91
2017-09-12T04:39:32.754Z,55.95
2017-09-12T04:42:00.189Z,55.97
2017-09-12T04:44:27.629Z,55.99
2017-09-12T04:46:55.100Z,55.94
2017-09-12T04:49:22.531Z,56.15
2017-09-12T04:51:49.972Z,56.08
2017-09-12T04:54:17.400Z,56.12
2017-09-12T04:56:44.815Z,56.03
2017-09-12T04:59:12.373Z,56.11
2017-09-12T05:01:39.808Z,56.07
2017-09-12T05:04:07.380Z,56.06
2017-09-12T05:06:34.852Z,55.99
2017-09-12T05:09:02.291Z,55.99
2017-09-12T05:11:29.707Z,56.02
2017-09-12T05:13:57.139Z,56.04
2017-09-12T05:16:24.603Z,55.98
2017-09-12T05:18:52.021Z,56.03
2017-09-12T05:21:19.466Z,56.05
2017-09-12T05:23:46.961Z,56.06
2017-09-12T05:26:14.393Z,56.08
2017-09-12T05:28:41.847Z,56.07
2017-09-12T05:31:09.534Z,56.02
2017-09-12T05:33:36.963Z,56.03
2017-09-12T05:36:05.271Z,56.07
2017-09-12T05:38:32.720Z,56.25
2017-09-12T05:41:00.124Z,56.27
2017-09-12T05:43:27.625Z,56.36
2017-09-12T05:45:55.321Z,56.44
2017-09-12T05:48:22.731Z,56.52
2017-09-12T05:50:50.153Z,56.58
2017-09-12T05:53:17.627Z,56.81
2017-09-12T05:55:45.040Z,56.72
2017-09-12T05:58:12.576Z,56.75
2017-09-12T06:00:40.019Z,56.72
2017-09-12T06:03:07.435Z,56.80
2017-09-12T06:05:34.854Z,57.40
2017-09-12T06:08:02.419Z,57.70
2017-09-12T06:10:29.867Z,57.64
2017-09-12T06:12:57.285Z,57.73
2017-09-12T06:15:24.747Z,57.62
2017-09-12T06:17:52.227Z,57.59
2017-09-12T06:20:19.648Z,57.65
2017-09-12T06:22:47.165Z,57.55
2017-09-12T06:25:14.595Z,57.50
2017-09-12T06:27:42.103Z,57.48
2017-09-12T06:30:09.566Z,57.45
2017-09-12T06:32:36.992Z,57.39
2017-09-12T06:35:04.595Z,57.37
2017-09-12T06:37:32.052Z,57.33
2017-09-12T06:39:59.469Z,57.26
2017-09-12T06:42:26.902Z,57.24
2017-09-12T06:44:54.360Z,57.20
2017-09-12T06:47:21.786Z,57.16
2017-09-12T06:49:49.238Z,57.11
2017-09-12T06:52:16.694Z,57.08
2017-09-12T06:54:44.107Z,57.04
2017-09-12T06:57:11.545Z,56.99
2017-09-12T06:59:38.999Z,56.93
2017-09-12T07:02:06.423Z,56.93
2017-09-12T07:04:33.846Z,56.87
2017-09-12T07:07:01.322Z,56.83
2017-09-12T07:09:28.741Z,56.81
2017-09-12T07:11:56.178Z,56.78
2017-09-12T07:14:23.630Z,56.73
2017-09-12T07:16:51.054Z,56.74
2017-09-12T07:19:18.497Z,56.70
2017-09-12T07:21:45.943Z,56.68
2017-09-12T07:24:13.360Z,56.66
2017-09-12T07:26:40.778Z,56.64
2017-09-12T07:29:08.232Z,56.61
2017-09-12T07:31:35.648Z,56.60
2017-09-12T07:34:03.156Z,56.58
2017-09-12T07:36:30.592Z,56.54
2017-09-12T07:38:58.039Z,56.53
2017-09-12T07:41:25.530Z,56.53
2017-09-12T07:43:52.983Z,56.54
2017-09-12T07:46:20.408Z,56.52
2017-09-12T07:48:47.835Z,56.50
2017-09-12T07:51:15.283Z,56.49
2017-09-12T07:53:42.700Z,56.48
2017-09-12T07:56:10.120Z,56.45
2017-09-12T07:58:37.719Z,56.44
2017-09-12T08:01:05.142Z,56.44
2017-09-12T08:03:32.569Z,56.44
2017-09-12T08:06:00.005Z,56.45
2017-09-12T08:08:27.425Z,56.43
2017-09-12T08:10:54.848Z,56.50
2017-09-12T08:13:22.335Z,56.46
2017-09-12T08:15:49.751Z,56.46
2017-09-12T08:18:17.187Z,56.46
2017-09-12T08:20:44.651Z,56.47
2017-09-12T08:23:12.088Z,56.43
2017-09-12T08:25:39.520Z,56.42
2017-09-12T08:28:07.028Z,56.37
2017-09-12T08:30:34.445Z,56.37
2017-09-12T08:33:01.864Z,56.36
2017-09-12T08:35:29.348Z,56.49
2017-09-12T08:37:56.902Z,56.41
2017-09-12T08:40:24.329Z,56.37
2017-09-12T08:42:51.805Z,56.37
2017-09-12T08:45:19.238Z,56.38
2017-09-12T08:47:46.657Z,56.37
2017-09-12T08:50:14.174Z,56.38
2017-09-12T08:52:41.587Z,56.41
2017-09-12T08:55:09.051Z,56.43
2017-09-12T08:57:36.526Z,56.42
2017-09-12T09:00:03.944Z,56.40
2017-09-12T09:02:31.545Z,56.38
2017-09-12T09:04:58.987Z,56.43
2017-09-12T09:07:26.440Z,56.38
2017-09-12T09:09:53.858Z,56.42
2017-09-12T09:12:21.304Z,56.40
2017-09-12T09:14:48.747Z,56.38
2017-09-12T09:17:16.170Z,56.36
2017-09-12T09:19:43.602Z,56.39
2017-09-12T09:22:11.024Z,56.33
2017-09-12T09:24:38.461Z,56.38
2017-09-12T09:27:05.883Z,56.50
2017-09-12T09:29:33.495Z,56.65
2017-09-12T09:32:00.912Z,56.63
2017-09-12T09:34:28.367Z,56.54
2017-09-12T09:36:55.772Z,56.52
2017-09-12T09:39:23.193Z,56.65
2017-09-12T09:41:50.627Z,56.57
2017-09-12T09:44:18.168Z,56.53
2017-09-12T09:46:45.627Z,56.41
2017-09-12T09:49:13.091Z,56.45
2017-09-12T09:51:40.507Z,56.50
2017-09-12T09:54:07.959Z,56.38
2017-09-12T09:56:35.398Z,56.32
2017-09-12T09:59:02.835Z,56.37
2017-09-12T10:01:30.256Z,56.47
2017-09-12T10:03:57.712Z,56.72
2017-09-12T10:06:25.132Z,57.57
2017-09-12T10:08:52.564Z,58.15
2017-09-12T10:11:20.036Z,58.18
2017-09-12T10:13:47.485Z,58.15
2017-09-12T10:16:14.929Z,58.04
2017-09-12T10:18:42.380Z,57.96
2017-09-12T10:21:09.904Z,57.51
2017-09-12T10:23:37.322Z,57.96
2017-09-12T10:26:05.814Z,57.67
2017-09-12T10:28:33.288Z,57.63
2017-09-12T10:31:00.895Z,57.55
2017-09-12T10:33:28.353Z,57.09
2017-09-12T10:35:55.773Z,57.07
2017-09-12T10:38:23.210Z,57.31
2017-09-12T10:40:50.657Z,57.04
2017-09-12T10:43:18.150Z,57.06
2017-09-12T10:45:45.679Z,56.94
2017-09-12T10:48:13.134Z,57.03
2017-09-12T10:50:40.563Z,56.86
2017-09-12T10:53:08.085Z,56.96
2017-09-12T10:55:36.362Z,57.01
2017-09-12T10:58:03.797Z,56.91
2017-09-12T11:00:31.331Z,56.97
2017-09-12T11:02:58.786Z,56.96
2017-09-12T11:05:26.212Z,56.86
2017-09-12T11:07:53.629Z,56.99
2017-09-12T11:10:21.074Z,56.95
2017-09-12T11:12:48.516Z,56.94
2017-09-12T11:15:15.934Z,56.96
2017-09-12T11:17:43.384Z,56.92
2017-09-12T11:20:10.805Z,56.75
2017-09-12T11:22:38.233Z,56.72
2017-09-12T11:25:05.687Z,56.77
2017-09-12T11:27:33.148Z,56.85
2017-09-12T11:30:00.584Z,56.85
2017-09-12T11:32:28.060Z,56.91
2017-09-12T11:34:55.478Z,56.92
2017-09-12T11:37:22.900Z,56.93
2017-09-12T11:39:50.341Z,56.96
2017-09-12T11:42:17.788Z,56.91
2017-09-12T11:44:45.195Z,56.98
2017-09-12T11:47:12.657Z,56.95
2017-09-12T11:49:40.076Z,56.97
2017-09-12T11:52:07.493Z,56.97
2017-09-12T11:54:34.974Z,56.96
2017-09-12T11:57:03.359Z,56.98
2017-09-12T11:59:30.929Z,56.97
2017-09-12T12:01:58.373Z,56.97
2017-09-12T12:04:26.362Z,56.95
2017-09-12T12:06:53.795Z,56.92
2017-09-12T12:09:21.239Z,56.89
2017-09-12T12:11:48.661Z,56.89
2017-09-12T12:14:16.084Z,56.88
2017-09-12T12:16:43.594Z,56.89
2017-09-12T12:19:11.036Z,56.90
2017-09-12T12:21:38.456Z,56.91
2017-09-12T12:24:05.960Z,56.89
2017-09-12T12:26:33.373Z,56.89
2017-09-12T12:29:00.816Z,56.88
2017-09-12T12:31:28.293Z,56.86
2017-09-12T12:33:55.746Z,56.85
2017-09-12T12:36:23.158Z,56.83
2017-09-12T12:38:50.659Z,56.85
2017-09-12T12:41:18.103Z,56.85
2017-09-12T12:43:45.530Z,56.81
2017-09-12T12:46:13.005Z,56.79
2017-09-12T12:48:40.430Z,56.79
2017-09-12T12:51:08.378Z,56.78
2017-09-12T12:53:35.864Z,56.73
2017-09-12T12:56:03.295Z,56.75
2017-09-12T12:58:30.728Z,56.78
2017-09-12T13:00:58.296Z,56.80
2017-09-12T13:03:25.713Z,56.81
2017-09-12T13:05:53.137Z,56.85
2017-09-12T13:08:20.595Z,56.86
2017-09-12T13:10:48.024Z,56.86
2017-09-12T13:13:15.437Z,56.83
2017-09-12T13:15:42.929Z,56.80
2017-09-12T13:18:10.370Z,56.77
2017-09-12T13:20:37.822Z,56.78
2017-09-12T13:23:05.301Z,56.79
2017-09-12T13:25:32.728Z,56.79
2017-09-12T13:28:00.156Z,56.81
2017-09-12T13:30:27.599Z,56.83
2017-09-12T13:32:55.046Z,56.80
2017-09-12T13:35:22.450Z,56.80
2017-09-12T13:37:49.970Z,56.75
2017-09-12T13:40:17.395Z,56.83
2017-09-12T13:42:45.625Z,56.81
2017-09-12T13:45:13.106Z,56.78
2017-09-12T13:47:40.525Z,56.78
2017-09-12T13:50:07.954Z,56.75
2017-09-12T13:52:35.411Z,56.75
2017-09-12T13:55:02.850Z,56.77
2017-09-12T13:57:30.315Z,56.65
2017-09-12T13:59:57.740Z,56.74
2017-09-12T14:02:25.148Z,56.74
2017-09-12T14:04:52.583Z,56.70
2017-09-12T14:07:20.034Z,56.67
2017-09-12T14:09:47.460Z,56.72
2017-09-12T14:12:14.904Z,56.72
2017-09-12T14:14:42.463Z,56.52
2017-09-12T14:17:09.884Z,56.59
2017-09-12T14:19:37.317Z,56.57
2017-09-12T14:22:05.293Z,56.58
2017-09-12T14:24:32.728Z,56.49
2017-09-12T14:27:00.173Z,56.59
2017-09-12T14:29:27.977Z,56.52
2017-09-12T14:31:55.582Z,56.43
2017-09-12T14:34:23.110Z,56.33
2017-09-12T14:36:50.619Z,56.65
2017-09-12T14:39:18.143Z,56.67
2017-09-12T14:41:45.560Z,56.61
2017-09-12T14:44:13.000Z,56.56
2017-09-12T14:46:40.423Z,56.45
2017-09-12T14:49:07.853Z,56.39
2017-09-12T14:51:35.305Z,56.36
2017-09-12T14:54:02.727Z,56.29
2017-09-12T14:56:30.164Z,56.19
2017-09-12T14:58:57.593Z,56.25
2017-09-12T15:01:25.028Z,56.42
2017-09-12T15:03:52.451Z,56.39
2017-09-12T15:06:19.917Z,56.68
2017-09-12T15:08:47.350Z,56.58
2017-09-12T15:11:14.800Z,56.78
2017-09-12T15:13:42.313Z,56.68
2017-09-12T15:16:09.724Z,56.73
2017-09-12T15:18:37.166Z,56.68
2017-09-12T15:21:04.623Z,56.70
2017-09-12T15:23:32.039Z,56.65
2017-09-12T15:25:59.451Z,56.56
2017-09-12T15:28:26.919Z,56.54
2017-09-12T15:30:54.338Z,56.55
2017-09-12T15:33:21.784Z,56.52
2017-09-12T15:35:49.256Z,56.52
2017-09-12T15:38:16.685Z,56.45
2017-09-12T15:40:44.099Z,56.42
2017-09-12T15:43:11.515Z,56.51
2017-09-12T15:45:38.936Z,56.45
2017-09-12T15:48:06.410Z,56.53
2017-09-12T15:50:33.968Z,56.45
2017-09-12T15:53:01.408Z,56.56
2017-09-12T15:55:28.857Z,56.56
2017-09-12T15:57:56.314Z,56.53
2017-09-12T16:00:23.747Z,56.52
2017-09-12T16:02:51.172Z,56.52
2017-09-12T16:05:18.706Z,56.45
2017-09-12T16:07:46.164Z,56.52
2017-09-12T16:10:13.586Z,56.46
2017-09-12T16:12:41.063Z,56.34
2017-09-12T16:15:08.512Z,56.50
2017-09-12T16:17:35.961Z,56.37
2017-09-12T16:20:03.436Z,56.38
2017-09-12T16:22:30.922Z,56.39
2017-09-12T16:24:58.789Z,56.16
2017-09-12T16:27:26.243Z,56.22
2017-09-12T16:29:53.651Z,56.23
2017-09-12T16:32:21.091Z,56.31
2017-09-12T16:34:48.554Z,56.46
2017-09-12T16:37:16.130Z,56.67
2017-09-12T16:39:43.689Z,56.87
2017-09-12T16:42:11.170Z,57.31
2017-09-12T16:44:38.593Z,58.98
2017-09-12T16:47:06.019Z,59.19
2017-09-12T16:49:33.466Z,59.15
2017-09-12T16:52:00.940Z,58.94
2017-09-12T16:54:28.367Z,58.64
2017-09-12T16:56:55.860Z,58.35
2017-09-12T16:59:23.373Z,58.33
2017-09-12T17:01:50.806Z,58.20
2017-09-12T17:04:18.314Z,58.33
2017-09-12T17:06:45.801Z,58.26
2017-09-12T17:09:13.309Z,58.19
2017-09-12T17:11:40.827Z,58.05
2017-09-12T17:14:08.528Z,58.12
2017-09-12T17:16:36.041Z,58.03
2017-09-12T17:19:03.565Z,57.99
2017-09-12T17:21:31.062Z,57.89
2017-09-12T17:23:58.642Z,57.85
2017-09-12T17:26:26.172Z,57.79
2017-09-12T17:28:53.693Z,57.72
2017-09-12T17:31:21.222Z,57.66
2017-09-12T17:33:48.767Z,57.72
2017-09-12T17:36:16.638Z,57.70
2017-09-12T17:38:44.192Z,57.54
2017-09-12T17:41:12.037Z,57.47
2017-09-12T17:43:39.795Z,57.50
2017-09-12T17:46:08.109Z,57.57
2017-09-12T17:48:36.078Z,57.46
2017-09-12T17:51:03.936Z,57.23
2017-09-12T17:53:31.918Z,57.25
2017-09-12T17:56:00.495Z,57.13
2017-09-12T17:58:28.352Z,57.08
2017-09-12T18:00:56.015Z,57.06
2017-09-12T18:03:23.625Z,56.95
2017-09-12T18:05:51.144Z,57.01
2017-09-12T18:08:19.003Z,56.88
2017-09-12T18:10:46.617Z,56.89
2017-09-12T18:13:14.217Z,56.73
2017-09-12T18:15:41.724Z,56.91
2017-09-12T18:18:09.270Z,56.76
2017-09-12T18:20:36.861Z,56.69
2017-09-12T18:23:04.451Z,56.75
2017-09-12T18:25:31.972Z,56.71
2017-09-12T18:27:59.605Z,56.56
2017-09-12T18:30:27.106Z,56.49
2017-09-12T18:32:54.603Z,56.44
2017-09-12T18:35:22.607Z,56.48
2017-09-12T18:37:50.205Z,56.48
2017-09-12T18:40:17.727Z,56.52
2017-09-12T18:42:45.335Z,56.40
2017-09-12T18:45:12.909Z,56.38
2017-09-12T18:47:40.448Z,56.58
2017-09-12T18:50:07.957Z,56.53
2017-09-12T18:52:35.519Z,56.45
2017-09-12T18:55:03.066Z,56.40
2017-09-12T18:57:30.565Z,56.40
2017-09-12T18:59:58.072Z,56.25
2017-09-12T19:02:25.600Z,56.49
2017-09-12T19:04:53.092Z,56.39
2017-09-12T19:07:20.584Z,56.58
2017-09-12T19:09:48.115Z,56.56
2017-09-12T19:12:15.616Z,56.47
2017-09-12T19:14:43.130Z,56.58
2017-09-12T19:17:11.623Z,56.55
2017-09-12T19:19:39.140Z,56.61
2017-09-12T19:22:06.686Z,56.45
2017-09-12T19:24:34.216Z,56.57
2017-09-12T19:27:01.702Z,56.53
2017-09-12T19:29:29.306Z,56.43
2017-09-12T19:31:56.855Z,56.51
2017-09-12T19:34:24.357Z,56.60
2017-09-12T19:36:51.859Z,56.58
2017-09-12T19:39:19.409Z,56.57
2017-09-12T19:41:46.906Z,56.60
2017-09-12T19:44:14.420Z,56.59
2017-09-12T19:46:42.174Z,56.57
2017-09-12T19:49:09.732Z,56.58
2017-09-12T19:51:37.256Z,56.56
2017-09-12T19:54:05.768Z,56.51
2017-09-12T19:56:33.270Z,56.53
2017-09-12T19:59:00.769Z,56.49
2017-09-12T20:01:28.298Z,56.47
2017-09-12T20:03:55.814Z,56.46
2017-09-12T20:06:23.341Z,56.47
2017-09-12T20:08:50.899Z,56.45
2017-09-12T20:11:18.379Z,56.44
2017-09-12T20:13:45.937Z,56.34
2017-09-12T20:16:13.453Z,56.34
2017-09-12T20:18:40.957Z,56.31
2017-09-12T20:21:08.474Z,56.30
2017-09-12T20:23:36.175Z,56.32
2017-09-12T20:26:03.667Z,56.25
2017-09-12T20:28:31.149Z,56.27
2017-09-12T20:30:58.702Z,56.27
2017-09-12T20:33:26.245Z,56.27
2017-09-12T20:35:53.766Z,56.18
2017-09-12T20:38:21.423Z,56.15
2017-09-12T20:40:48.954Z,56.17
2017-09-12T20:43:16.447Z,56.13
2017-09-12T20:45:43.983Z,56.15
2017-09-12T20:48:11.484Z,56.16
2017-09-12T20:50:38.996Z,56.11
2017-09-12T20:53:06.546Z,56.12
2017-09-12T20:55:34.045Z,56.09
2017-09-12T20:58:01.720Z,56.11
2017-09-12T21:00:29.263Z,56.11
2017-09-12T21:02:56.765Z,56.14
2017-09-12T21:05:24.839Z,56.10
2017-09-12T21:07:52.484Z,56.08
2017-09-12T21:10:20.014Z,56.06
2017-09-12T21:12:47.521Z,56.12
2017-09-12T21:15:15.046Z,56.17
2017-09-12T21:17:43.254Z,56.23
2017-09-12T21:20:10.748Z,56.17
2017-09-12T21:22:38.405Z,56.22
2017-09-12T21:25:05.910Z,56.17
2017-09-12T21:27:33.434Z,56.18
2017-09-12T21:30:00.977Z,56.21
2017-09-12T21:32:28.459Z,56.15
2017-09-12T21:34:55.956Z,56.14
2017-09-12T21:37:23.482Z,56.18
2017-09-12T21:39:50.979Z,56.16
2017-09-12T21:42:18.473Z,56.17
2017-09-12T21:44:46.000Z,56.13
2017-09-12T21:47:13.482Z,56.08
2017-09-12T21:49:41.034Z,56.08
2017-09-12T21:52:08.576Z,56.08
2017-09-12T21:54:36.081Z,56.02
2017-09-12T21:57:03.586Z,56.04
2017-09-12T21:59:31.115Z,56.06
2017-09-12T22:01:58.697Z,56.02
2017-09-12T22:04:26.206Z,56.04
2017-09-12T22:06:53.742Z,55.99
2017-09-12T22:09:21.307Z,56.00
2017-09-12T22:11:48.854Z,55.96
2017-09-12T22:14:16.377Z,55.97
2017-09-12T22:16:43.871Z,55.91
2017-09-12T22:19:11.424Z,55.97
2017-09-12T22:21:38.943Z,55.91
2017-09-12T22:24:06.427Z,55.90
2017-09-12T22:26:33.929Z,55.89
2017-09-12T22:29:01.462Z,55.92
2017-09-12T22:31:28.986Z,55.88
2017-09-12T22:33:56.465Z,55.83
2017-09-12T22:36:23.972Z,55.83
2017-09-12T22:38:51.474Z,55.81
2017-09-12T22:41:18.985Z,55.83
2017-09-12T22:43:46.624Z,55.82
2017-09-12T22:46:14.110Z,55.81
2017-09-12T22:48:41.647Z,55.75
2017-09-12T22:51:09.167Z,55.82
2017-09-12T22:53:36.651Z,55.73
2017-09-12T22:56:04.142Z,55.72
2017-09-12T22:58:31.674Z,55.71
2017-09-12T23:00:59.179Z,55.74
2017-09-12T23:03:26.681Z,55.67
2017-09-12T23:05:54.205Z,55.68
2017-09-12T23:08:21.726Z,55.63
2017-09-12T23:10:49.215Z,55.66
2017-09-12T23:13:16.718Z,55.61
2017-09-12T23:15:44.209Z,55.65
2017-09-12T23:18:11.714Z,55.59
2017-09-12T23:20:39.228Z,55.63
2017-09-12T23:23:06.728Z,55.56
2017-09-12T23:25:34.218Z,55.55
2017-09-12T23:28:01.867Z,55.58
2017-09-12T23:30:29.364Z,55.51
2017-09-12T23:32:56.848Z,55.52
2017-09-12T23:35:24.402Z,55.53
2017-09-12T23:37:51.898Z,55.49
2017-09-12T23:40:19.447Z,55.50
2017-09-12T23:42:46.976Z,55.49
2017-09-12T23:45:14.479Z,55.52
2017-09-12T23:47:41.953Z,55.43
2017-09-12T23:50:09.473Z,55.42
2017-09-12T23:52:36.953Z,55.40
2017-09-12T23:55:04.487Z,55.38
2017-09-12T23:57:31.995Z,55.42
2017-09-12T23:59:59.490Z,55.42
